createdAt,value
2023-03-30T00:01:32.524Z,19.57
2023-03-30T00:04:02.818Z,14.33
2023-03-30T00:06:31.068Z,15.87
2023-03-30T00:09:00.845Z,10.57
2023-03-30T00:11:33.911Z,21.47
2023-03-30T00:14:02.330Z,15.17
2023-03-30T00:16:30.433Z,12.13
2023-03-30T00:18:58.809Z,22.13
2023-03-30T00:21:28.265Z,18.70
2023-03-30T00:23:56.358Z,14.60
2023-03-30T00:26:24.525Z,14.50
2023-03-30T00:28:52.647Z,10.00
2023-03-30T00:31:20.759Z,18.63
2023-03-30T00:33:50.588Z,29.93
2023-03-30T00:36:22.415Z,16.73
2023-03-30T00:38:53.226Z,23.33
2023-03-30T00:41:21.708Z,14.50
2023-03-30T00:44:01.725Z,15.53
2023-03-30T00:46:31.087Z,17.03
2023-03-30T00:49:04.054Z,21.30
2023-03-30T00:51:35.627Z,15.10
2023-03-30T00:54:10.091Z,21.90
2023-03-30T00:56:38.369Z,20.10
2023-03-30T00:59:07.342Z,25.70
2023-03-30T01:01:39.273Z,15.97
2023-03-30T01:04:09.888Z,24.67
2023-03-30T01:06:40.308Z,16.60
2023-03-30T01:09:10.892Z,18.80
2023-03-30T01:11:39.058Z,23.53
2023-03-30T01:14:09.334Z,17.40
2023-03-30T01:16:45.108Z,14.00
2023-03-30T01:19:51.223Z,15.03
2023-03-30T01:22:52.774Z,11.40
2023-03-30T01:25:46.301Z,10.77
2023-03-30T01:28:41.815Z,15.83
2023-03-30T01:31:33.912Z,27.90
2023-03-30T01:34:38.050Z,22.70
2023-03-30T01:37:31.582Z,16.93
2023-03-30T01:40:09.305Z,15.33
2023-03-30T01:42:46.963Z,13.73
2023-03-30T01:45:20.793Z,17.73
2023-03-30T01:47:54.366Z,15.77
2023-03-30T01:50:27.808Z,16.83
2023-03-30T01:53:01.144Z,18.33
2023-03-30T01:55:36.070Z,17.03
2023-03-30T01:58:09.248Z,11.53
2023-03-30T02:00:41.011Z,29.77
2023-03-30T02:03:14.196Z,9.40
2023-03-30T02:05:44.742Z,17.23
2023-03-30T02:08:17.299Z,20.97
2023-03-30T02:10:48.330Z,16.97
2023-03-30T02:13:17.402Z,28.00
2023-03-30T02:15:48.659Z,24.60
2023-03-30T02:18:18.549Z,20.70
2023-03-30T02:20:49.501Z,16.83
2023-03-30T02:23:20.914Z,21.00
2023-03-30T02:25:50.495Z,15.30
2023-03-30T02:28:18.945Z,22.27
2023-03-30T02:30:48.410Z,25.03
2023-03-30T02:33:25.466Z,17.00
2023-03-30T02:36:17.773Z,16.30
2023-03-30T02:39:14.455Z,20.10
2023-03-30T02:42:27.668Z,19.73
2023-03-30T02:45:06.608Z,16.50
2023-03-30T02:47:41.309Z,15.27
2023-03-30T02:50:17.872Z,17.70
2023-03-30T02:52:56.485Z,19.67
2023-03-30T02:55:34.772Z,22.10
2023-03-30T02:58:41.445Z,17.40
2023-03-30T03:01:18.668Z,25.43
2023-03-30T03:03:59.128Z,17.27
2023-03-30T03:06:33.154Z,17.30
2023-03-30T03:09:01.776Z,17.03
2023-03-30T03:11:32.850Z,16.83
2023-03-30T03:14:01.804Z,13.20
2023-03-30T03:16:33.534Z,16.10
2023-03-30T03:19:11.846Z,10.57
2023-03-30T03:21:41.374Z,19.90
2023-03-30T03:24:13.542Z,34.17
2023-03-30T03:27:02.443Z,11.97
2023-03-30T03:29:36.325Z,18.93
2023-03-30T03:32:06.194Z,17.60
2023-03-30T03:34:44.779Z,11.10
2023-03-30T03:37:14.654Z,13.70
2023-03-30T03:39:44.678Z,14.70
2023-03-30T03:42:16.829Z,17.57
2023-03-30T03:45:04.560Z,14.33
2023-03-30T03:47:34.848Z,16.47
2023-03-30T03:50:06.925Z,26.07
2023-03-30T03:52:35.214Z,10.60
2023-03-30T03:55:03.342Z,19.73
2023-03-30T03:57:32.184Z,21.30
2023-03-30T04:00:00.644Z,17.00
2023-03-30T04:02:29.308Z,17.47
2023-03-30T04:04:59.198Z,12.43
2023-03-30T04:07:27.321Z,18.30
2023-03-30T04:09:55.459Z,13.93
2023-03-30T04:12:44.892Z,18.77
2023-03-30T04:15:25.407Z,26.17
2023-03-30T04:18:09.550Z,25.80
2023-03-30T04:21:03.001Z,19.87
2023-03-30T04:23:50.103Z,16.17
2023-03-30T04:26:20.876Z,20.67
2023-03-30T04:28:57.202Z,24.13
2023-03-30T04:31:42.369Z,12.97
2023-03-30T04:34:22.898Z,26.73
2023-03-30T04:37:08.727Z,14.00
2023-03-30T04:39:57.771Z,14.03
2023-03-30T04:43:02.527Z,21.73
2023-03-30T04:45:50.733Z,13.57
2023-03-30T04:48:38.563Z,24.20
2023-03-30T04:51:25.409Z,18.23
2023-03-30T04:54:18.581Z,26.83
2023-03-30T04:56:52.593Z,13.83
2023-03-30T04:59:38.933Z,21.93
2023-03-30T05:02:27.668Z,19.43
2023-03-30T05:05:11.434Z,17.13
2023-03-30T05:07:58.161Z,22.37
2023-03-30T05:10:46.206Z,13.93
2023-03-30T05:13:41.854Z,23.17
2023-03-30T05:16:30.676Z,18.80
2023-03-30T05:19:24.342Z,17.70
2023-03-30T05:21:55.284Z,20.80
2023-03-30T05:24:34.900Z,17.93
2023-03-30T05:27:22.787Z,22.20
2023-03-30T05:30:16.020Z,19.53
2023-03-30T05:33:02.679Z,20.50
2023-03-30T05:35:53.226Z,17.03
2023-03-30T05:38:45.823Z,26.20
2023-03-30T05:41:34.233Z,16.00
2023-03-30T05:44:12.611Z,18.77
2023-03-30T05:46:59.369Z,16.57
2023-03-30T05:49:41.360Z,20.80
2023-03-30T05:52:22.598Z,18.30
2023-03-30T05:55:05.562Z,18.93
2023-03-30T05:57:54.278Z,21.50
2023-03-30T06:00:33.436Z,20.87
2023-03-30T06:03:09.057Z,12.80
2023-03-30T06:05:39.002Z,19.20
2023-03-30T06:08:08.637Z,10.70
2023-03-30T06:10:37.929Z,17.60
2023-03-30T06:13:09.217Z,22.00
2023-03-30T06:15:52.964Z,15.50
2023-03-30T06:18:23.932Z,19.40
2023-03-30T06:21:08.489Z,23.73
2023-03-30T06:24:09.220Z,23.00
2023-03-30T06:26:41.080Z,17.17
2023-03-30T06:29:09.737Z,25.47
2023-03-30T06:31:40.108Z,14.20
2023-03-30T06:34:40.520Z,27.30
2023-03-30T06:37:09.741Z,17.47
2023-03-30T06:39:38.592Z,16.43
2023-03-30T06:42:07.703Z,13.73
2023-03-30T06:44:50.029Z,14.53
2023-03-30T06:47:22.408Z,13.80
2023-03-30T06:49:51.020Z,16.03
2023-03-30T06:52:39.899Z,16.90
2023-03-30T06:55:09.483Z,9.60
2023-03-30T06:57:38.236Z,14.43
2023-03-30T07:00:13.281Z,13.30
2023-03-30T07:02:43.299Z,16.97
2023-03-30T07:05:43.865Z,12.57
2023-03-30T07:08:27.314Z,11.80
2023-03-30T07:10:57.736Z,11.13
2023-03-30T07:13:31.965Z,9.73
2023-03-30T07:16:00.197Z,14.07
2023-03-30T07:18:29.751Z,19.10
2023-03-30T07:20:59.095Z,14.00
2023-03-30T07:23:31.148Z,16.90
2023-03-30T07:25:59.524Z,14.13
2023-03-30T07:28:40.343Z,22.67
2023-03-30T07:31:11.204Z,14.73
2023-03-30T07:33:42.588Z,14.87
2023-03-30T07:36:15.114Z,12.13
2023-03-30T07:38:43.394Z,9.57
2023-03-30T07:41:13.639Z,16.17
2023-03-30T07:43:42.421Z,23.80
2023-03-30T07:46:12.914Z,16.10
2023-03-30T07:48:46.862Z,15.30
2023-03-30T07:51:16.185Z,17.77
2023-03-30T07:53:56.028Z,10.87
2023-03-30T07:56:33.353Z,17.50
2023-03-30T07:59:02.453Z,12.50
2023-03-30T08:01:35.199Z,13.30
2023-03-30T08:04:11.249Z,17.20
2023-03-30T08:06:39.823Z,14.77
2023-03-30T08:09:08.618Z,15.97
2023-03-30T08:11:36.802Z,17.33
2023-03-30T08:14:05.242Z,13.37
2023-03-30T08:16:33.943Z,10.20
2023-03-30T08:19:02.165Z,12.17
2023-03-30T08:21:31.665Z,15.70
2023-03-30T08:23:59.805Z,10.50
2023-03-30T08:26:28.846Z,16.20
2023-03-30T08:28:56.952Z,11.37
2023-03-30T08:31:25.145Z,12.23
2023-03-30T08:33:53.230Z,13.37
2023-03-30T08:36:21.606Z,14.57
2023-03-30T08:38:51.096Z,19.00
2023-03-30T08:41:51.301Z,11.30
2023-03-30T08:44:29.879Z,14.63
2023-03-30T08:46:58.415Z,12.43
2023-03-30T08:49:27.721Z,16.10
2023-03-30T08:51:56.604Z,8.00
2023-03-30T08:54:34.423Z,9.60
2023-03-30T08:57:11.503Z,7.80
2023-03-30T08:59:47.776Z,11.07
2023-03-30T09:02:20.484Z,12.80
2023-03-30T09:05:02.100Z,8.10
2023-03-30T09:07:33.863Z,15.23
2023-03-30T09:10:04.028Z,8.73
2023-03-30T09:12:39.976Z,7.37
2023-03-30T09:15:16.337Z,7.97
2023-03-30T09:17:48.704Z,13.63
2023-03-30T09:20:23.635Z,11.17
2023-03-30T09:22:53.795Z,11.40
2023-03-30T09:25:31.151Z,11.67
2023-03-30T09:28:07.560Z,21.13
2023-03-30T09:30:40.429Z,8.37
2023-03-30T09:33:18.097Z,11.17
2023-03-30T09:35:58.605Z,8.67
2023-03-30T09:38:27.073Z,11.63
2023-03-30T09:41:07.849Z,12.67
2023-03-30T09:43:41.967Z,6.63
2023-03-30T09:46:10.788Z,11.63
2023-03-30T09:48:43.808Z,11.07
2023-03-30T09:51:24.244Z,7.70
2023-03-30T09:53:54.674Z,9.80
2023-03-30T09:56:29.722Z,9.90
2023-03-30T09:58:57.820Z,6.90
2023-03-30T10:01:38.256Z,10.93
2023-03-30T10:04:09.874Z,8.30
2023-03-30T10:06:50.403Z,8.00
2023-03-30T10:09:22.401Z,14.63
2023-03-30T10:11:53.628Z,11.70
2023-03-30T10:14:31.643Z,9.10
2023-03-30T10:17:00.835Z,9.07
2023-03-30T10:19:29.883Z,15.23
2023-03-30T10:21:59.458Z,9.87
2023-03-30T10:24:31.566Z,13.33
2023-03-30T10:27:11.006Z,9.27
2023-03-30T10:29:39.413Z,7.20
2023-03-30T10:32:12.937Z,13.20
2023-03-30T10:34:43.628Z,8.43
2023-03-30T10:37:15.018Z,12.33
2023-03-30T10:39:47.649Z,18.13
2023-03-30T10:42:21.725Z,11.37
2023-03-30T10:44:53.054Z,16.93
2023-03-30T10:47:34.358Z,10.67
2023-03-30T10:50:10.210Z,9.93
2023-03-30T10:52:58.021Z,18.40
2023-03-30T10:55:35.881Z,10.37
2023-03-30T10:58:14.965Z,9.53
2023-03-30T11:00:58.957Z,14.33
2023-03-30T11:03:29.728Z,16.63
2023-03-30T11:06:03.456Z,15.57
2023-03-30T11:08:36.635Z,15.30
2023-03-30T11:11:08.268Z,14.03
2023-03-30T11:13:41.433Z,18.30
2023-03-30T11:16:15.277Z,13.40
2023-03-30T11:18:52.348Z,13.73
2023-03-30T11:21:25.844Z,13.40
2023-03-30T11:23:56.271Z,14.67
2023-03-30T11:26:30.989Z,13.90
2023-03-30T11:29:09.208Z,17.20
2023-03-30T11:31:48.660Z,16.80
2023-03-30T11:34:25.833Z,16.30
2023-03-30T11:37:00.704Z,20.13
2023-03-30T11:39:33.691Z,17.10
2023-03-30T11:42:10.861Z,13.27
2023-03-30T11:44:40.388Z,14.47
2023-03-30T11:47:22.097Z,12.83
2023-03-30T11:50:12.885Z,20.00
2023-03-30T11:52:50.405Z,20.67
2023-03-30T11:55:42.168Z,10.13
2023-03-30T11:58:22.253Z,10.50
2023-03-30T12:01:02.130Z,16.93
2023-03-30T12:03:39.963Z,11.73
2023-03-30T12:06:28.575Z,18.40
2023-03-30T12:09:16.677Z,6.90
2023-03-30T12:11:50.453Z,6.30
2023-03-30T12:14:41.296Z,11.87
2023-03-30T12:17:25.539Z,10.60
2023-03-30T12:19:58.603Z,7.40
2023-03-30T12:22:32.582Z,9.83
2023-03-30T12:25:06.651Z,7.40
2023-03-30T12:27:37.009Z,15.50
2023-03-30T12:30:24.554Z,10.37
2023-03-30T12:33:04.316Z,8.13
2023-03-30T12:35:57.818Z,12.60
2023-03-30T12:38:27.319Z,6.13
2023-03-30T12:41:16.150Z,6.93
2023-03-30T12:44:06.524Z,16.80
2023-03-30T12:46:42.129Z,8.83
2023-03-30T12:49:24.243Z,8.67
2023-03-30T12:52:09.647Z,12.10
2023-03-30T12:55:17.782Z,16.50
2023-03-30T12:58:08.727Z,8.57
2023-03-30T13:00:53.885Z,9.67
2023-03-30T13:03:38.561Z,7.93
2023-03-30T13:06:23.635Z,5.70
2023-03-30T13:08:57.142Z,7.80
2023-03-30T13:11:25.512Z,8.93
2023-03-30T13:13:56.676Z,12.27
2023-03-30T13:16:48.048Z,7.07
2023-03-30T13:19:25.792Z,13.03
2023-03-30T13:21:59.602Z,6.40
2023-03-30T13:24:37.137Z,5.63
2023-03-30T13:27:26.409Z,4.33
2023-03-30T13:29:57.956Z,6.90
2023-03-30T13:32:48.512Z,7.20
2023-03-30T13:35:54.929Z,5.30
2023-03-30T13:38:53.169Z,5.63
2023-03-30T13:41:36.217Z,6.53
2023-03-30T13:44:19.141Z,8.03
2023-03-30T13:46:52.544Z,6.43
2023-03-30T13:49:34.648Z,5.93
2023-03-30T13:52:06.506Z,5.30
2023-03-30T13:54:39.924Z,5.37
2023-03-30T13:57:11.591Z,7.33
2023-03-30T13:59:44.283Z,9.77
2023-03-30T14:02:17.385Z,6.07
2023-03-30T14:04:46.273Z,14.13
2023-03-30T14:07:17.325Z,8.07
2023-03-30T14:10:04.690Z,9.10
2023-03-30T14:12:35.612Z,6.00
2023-03-30T14:15:18.072Z,7.70
2023-03-30T14:17:50.964Z,2.83
2023-03-30T14:20:30.895Z,10.80
2023-03-30T14:23:00.534Z,4.73
2023-03-30T14:25:33.346Z,3.07
2023-03-30T14:28:04.644Z,9.80
2023-03-30T14:30:34.439Z,1.77
2023-03-30T14:33:10.352Z,3.00
2023-03-30T14:35:43.094Z,1.70
2023-03-30T14:38:17.385Z,8.13
2023-03-30T14:40:47.967Z,2.63
2023-03-30T14:43:20.617Z,1.80
2023-03-30T14:45:50.060Z,1.73
2023-03-30T14:48:24.635Z,3.43
2023-03-30T14:50:53.024Z,2.57
2023-03-30T14:53:25.559Z,1.53
2023-03-30T14:55:58.827Z,6.20
2023-03-30T14:58:29.050Z,1.73
2023-03-30T15:00:58.948Z,3.00
2023-03-30T15:03:33.956Z,4.70
2023-03-30T15:06:03.348Z,7.20
2023-03-30T15:08:33.650Z,15.70
2023-03-30T15:11:08.208Z,4.40
2023-03-30T15:13:38.716Z,4.30
2023-03-30T15:16:08.344Z,4.37
2023-03-30T15:18:38.340Z,4.57
2023-03-30T15:21:10.522Z,7.90
2023-03-30T15:23:42.681Z,6.80
2023-03-30T15:26:13.826Z,4.03
2023-03-30T15:28:46.924Z,6.53
2023-03-30T15:31:16.510Z,3.33
2023-03-30T15:33:46.730Z,5.70
2023-03-30T15:36:18.873Z,3.93
2023-03-30T15:38:49.930Z,5.37
2023-03-30T15:41:22.529Z,5.90
2023-03-30T15:43:56.539Z,2.67
2023-03-30T15:46:25.533Z,5.20
2023-03-30T15:48:55.237Z,6.13
2023-03-30T15:51:27.602Z,6.90
2023-03-30T15:54:00.741Z,7.13
2023-03-30T15:56:34.741Z,5.00
2023-03-30T15:59:03.287Z,4.37
2023-03-30T16:01:43.648Z,5.93
2023-03-30T16:04:15.241Z,3.33
2023-03-30T16:06:45.855Z,5.20
2023-03-30T16:09:16.125Z,6.03
2023-03-30T16:11:46.478Z,1.90
2023-03-30T16:14:17.718Z,5.33
2023-03-30T16:16:45.887Z,6.17
2023-03-30T16:19:16.038Z,5.80
2023-03-30T16:21:45.398Z,5.33
2023-03-30T16:24:13.918Z,6.93
2023-03-30T16:26:42.023Z,3.50
2023-03-30T16:29:21.443Z,6.10
2023-03-30T16:31:49.704Z,4.50
2023-03-30T16:34:18.228Z,3.63
2023-03-30T16:36:48.032Z,3.13
2023-03-30T16:39:19.357Z,4.50
2023-03-30T16:41:48.440Z,3.93
2023-03-30T16:44:18.904Z,3.90
2023-03-30T16:46:48.031Z,4.60
2023-03-30T16:49:19.050Z,2.80
2023-03-30T16:51:47.478Z,7.60
2023-03-30T16:54:29.581Z,4.80
2023-03-30T16:56:59.371Z,5.10
2023-03-30T16:59:30.583Z,4.40
2023-03-30T17:02:00.136Z,3.70
2023-03-30T17:04:28.688Z,2.10
2023-03-30T17:06:56.958Z,11.47
2023-03-30T17:09:25.528Z,3.33
2023-03-30T17:11:53.599Z,3.80
2023-03-30T17:14:23.672Z,5.47
2023-03-30T17:16:53.307Z,6.67
2023-03-30T17:19:21.681Z,5.70
2023-03-30T17:21:50.319Z,5.30
2023-03-30T17:24:18.632Z,6.70
2023-03-30T17:26:47.085Z,6.70
2023-03-30T17:29:15.193Z,7.47
2023-03-30T17:31:45.845Z,5.67
2023-03-30T17:34:15.974Z,4.77
2023-03-30T17:36:44.065Z,6.00
2023-03-30T17:39:14.055Z,5.20
2023-03-30T17:41:42.416Z,4.73
2023-03-30T17:44:10.641Z,4.93
2023-03-30T17:46:39.218Z,10.10
2023-03-30T17:49:18.232Z,5.70
2023-03-30T17:51:47.171Z,6.33
2023-03-30T17:54:15.603Z,7.70
2023-03-30T17:56:43.722Z,8.27
2023-03-30T17:59:12.605Z,8.67
2023-03-30T18:01:41.051Z,9.43
2023-03-30T18:04:09.419Z,6.20
2023-03-30T18:06:39.037Z,6.40
2023-03-30T18:09:14.916Z,4.90
2023-03-30T18:11:43.406Z,7.47
2023-03-30T18:14:11.513Z,7.30
2023-03-30T18:16:43.802Z,6.50
2023-03-30T18:19:12.531Z,6.60
2023-03-30T18:21:42.062Z,6.37
2023-03-30T18:24:10.171Z,6.70
2023-03-30T18:26:40.872Z,5.43
2023-03-30T18:29:19.876Z,5.17
2023-03-30T18:31:48.346Z,6.50
2023-03-30T18:34:17.051Z,5.70
2023-03-30T18:36:46.526Z,5.33
2023-03-30T18:39:19.680Z,9.80
2023-03-30T18:41:47.855Z,8.77
2023-03-30T18:44:16.110Z,12.43
2023-03-30T18:46:45.316Z,8.43
2023-03-30T18:49:15.155Z,5.17
2023-03-30T18:51:43.431Z,11.30
2023-03-30T18:54:12.917Z,5.37
2023-03-30T18:56:41.044Z,9.83
2023-03-30T18:59:10.950Z,9.20
2023-03-30T19:01:40.180Z,7.20
2023-03-30T19:04:08.323Z,6.40
2023-03-30T19:06:36.405Z,8.47
2023-03-30T19:09:04.544Z,4.43
2023-03-30T19:11:34.221Z,8.00
2023-03-30T19:14:03.621Z,6.43
2023-03-30T19:16:31.845Z,4.23
2023-03-30T19:18:59.914Z,6.20
2023-03-30T19:21:28.084Z,7.10
2023-03-30T19:23:56.573Z,5.50
2023-03-30T19:26:24.661Z,6.53
2023-03-30T19:28:54.462Z,5.67
2023-03-30T19:31:22.857Z,4.63
2023-03-30T19:33:51.004Z,6.87
2023-03-30T19:36:19.065Z,6.37
2023-03-30T19:38:49.373Z,4.90
2023-03-30T19:41:17.452Z,9.00
2023-03-30T19:43:45.597Z,6.43
2023-03-30T19:46:15.062Z,6.27
2023-03-30T19:48:43.288Z,8.87
2023-03-30T19:51:12.110Z,4.50
2023-03-30T19:53:40.512Z,10.60
2023-03-30T19:56:11.108Z,3.80
2023-03-30T19:58:39.494Z,11.93
2023-03-30T20:01:08.659Z,5.70
2023-03-30T20:03:38.313Z,5.00
2023-03-30T20:06:11.072Z,5.20
2023-03-30T20:08:39.265Z,5.33
2023-03-30T20:11:08.669Z,4.90
2023-03-30T20:13:37.121Z,4.13
2023-03-30T20:16:06.097Z,5.10
2023-03-30T20:18:35.668Z,6.33
2023-03-30T20:21:05.940Z,4.73
2023-03-30T20:23:34.286Z,8.30
2023-03-30T20:26:04.448Z,7.87
2023-03-30T20:28:33.253Z,8.90
2023-03-30T20:31:01.949Z,7.43
2023-03-30T20:33:33.076Z,6.73
2023-03-30T20:36:01.521Z,6.13
2023-03-30T20:38:31.138Z,7.97
2023-03-30T20:41:02.111Z,5.30
2023-03-30T20:43:33.735Z,5.37
2023-03-30T20:46:14.182Z,4.83
2023-03-30T20:48:42.936Z,7.23
2023-03-30T20:51:13.099Z,7.13
2023-03-30T20:53:43.461Z,3.73
2023-03-30T20:56:12.457Z,6.90
2023-03-30T20:58:40.740Z,5.53
2023-03-30T21:01:15.159Z,17.97
2023-03-30T21:03:45.157Z,6.80
2023-03-30T21:06:18.054Z,5.10
2023-03-30T21:08:48.016Z,7.67
2023-03-30T21:11:16.361Z,7.00
2023-03-30T21:13:44.450Z,5.20
2023-03-30T21:16:12.544Z,6.03
2023-03-30T21:18:40.645Z,6.60
2023-03-30T21:21:09.178Z,5.27
2023-03-30T21:23:39.906Z,6.10
2023-03-30T21:26:10.319Z,8.83
2023-03-30T21:28:38.939Z,3.47
2023-03-30T21:31:09.055Z,3.37
2023-03-30T21:33:38.193Z,6.90
2023-03-30T21:36:07.597Z,3.50
2023-03-30T21:38:36.313Z,7.07
2023-03-30T21:41:06.908Z,4.27
2023-03-30T21:43:37.517Z,6.67
2023-03-30T21:46:07.435Z,5.43
2023-03-30T21:48:38.257Z,6.67
2023-03-30T21:51:08.147Z,7.23
2023-03-30T21:53:37.068Z,12.00
2023-03-30T21:56:05.859Z,6.37
2023-03-30T21:58:34.155Z,2.53
2023-03-30T22:01:11.861Z,7.13
2023-03-30T22:03:41.470Z,6.80
2023-03-30T22:06:11.468Z,7.40
2023-03-30T22:08:39.652Z,5.77
2023-03-30T22:11:09.947Z,3.83
2023-03-30T22:13:38.135Z,8.30
2023-03-30T22:16:12.596Z,4.07
2023-03-30T22:18:41.064Z,8.53
2023-03-30T22:21:13.012Z,6.50
2023-03-30T22:23:41.353Z,10.07
2023-03-30T22:26:09.841Z,6.07
2023-03-30T22:28:37.897Z,9.07
2023-03-30T22:31:09.590Z,5.13
2023-03-30T22:33:37.734Z,6.80
2023-03-30T22:36:07.746Z,4.40
2023-03-30T22:38:36.492Z,6.70
2023-03-30T22:41:07.719Z,4.40
2023-03-30T22:43:36.434Z,8.03
2023-03-30T22:46:05.631Z,6.37
2023-03-30T22:48:36.116Z,3.23
2023-03-30T22:51:05.153Z,5.50
2023-03-30T22:53:33.566Z,11.40
2023-03-30T22:56:01.974Z,6.40
2023-03-30T22:58:30.116Z,11.97
2023-03-30T23:01:02.029Z,5.37
2023-03-30T23:03:30.479Z,7.53
2023-03-30T23:06:01.256Z,8.10
2023-03-30T23:08:29.906Z,9.80
2023-03-30T23:11:04.498Z,6.37
2023-03-30T23:13:33.373Z,9.43
2023-03-30T23:16:01.508Z,14.17
2023-03-30T23:18:29.742Z,5.23
2023-03-30T23:20:59.196Z,5.50
2023-03-30T23:23:27.323Z,5.33
2023-03-30T23:25:55.498Z,6.63
2023-03-30T23:28:23.585Z,4.43
2023-03-30T23:30:51.763Z,4.20
2023-03-30T23:33:19.817Z,8.40
2023-03-30T23:35:50.799Z,6.27
2023-03-30T23:38:21.013Z,6.03
2023-03-30T23:40:49.158Z,7.27
2023-03-30T23:43:17.324Z,12.73
2023-03-30T23:45:45.846Z,9.77
2023-03-30T23:48:13.981Z,8.03
2023-03-30T23:50:42.208Z,7.90
2023-03-30T23:53:10.264Z,6.63
2023-03-30T23:55:41.269Z,9.17
2023-03-30T23:58:09.532Z,4.60
